Murdock, Ohio
Current Conditions -  °F | °C
As of 1:53 AM on Monday 24 Nov 2014 (Local Time) from KLUK Reporting Station
Overcast Overcast  
Wind Chill: 59°   Ceiling: 2500
Heat Index: 59°   Visibility: 10mi
Dew Point: 59°   Wind: 20mph
Humidity: 100%   Direction: 210°SSW
Pressure: 29.33"   Gusts: 33mph
Location:  39.23°N, 84.2394°W
Report Text: KLUK 240653Z AUTO 21017G29KT 10SM SCT019 BKN025 OVC031 15/15 A2933 RMK AO2 PK WND 20029/0608 RAE21 SLP929 P0000 T01500150 $
Loading
Personal Weather Stations






























Interactive Weather Map New forecast layout! Learn more

10-Day Weather Forecast

Advertisements
Track Severe Weather on mobile